»·PEaware :: DAL576 KRNO-KSLC

DAL576 :: KRNO-KSLC

FLIGHT INFORMATION

Flight Status: Arrived
Operator:
Delta Air Lines
More flights by this operator :: More flights under this callsign
Pilot: Anonymous 8274 (8274)
Aircraft: BOEING 737-200
(B732)
More flights by this aircraft type
Origin: KRNO Reno/Tahoe Intl
United States
Destination: KSLC Salt Lake City Intl
United States
More flights between these airports :: More routes between these airports
Route: +WAGGE6 LLC BAM J94 LCU BEARR5
File this flight plan on PilotEdge
Remarks:
Altitude:
(Current/Filed)
31,000ft
Speed:
(Current/Filed)
450kts
Departed: 20-Jan-18 12:55 PM
Arrived: 20-Jan-18 02:10 PM
Distance/Time
Traveled:
365nm/1:15
Distance/Time
To Go:
Arrived

Flight Plot

Page will automatically refresh every two minutes.

Flight plan parsing failed; only flown route is shown


Map Options




Map Legend


Flown Route
Filed Route
Departure Airport
Arrival Airport
Navaid (VOR, NDB)
Fix

Horizontal Profiles

Position Reports

Time Latitude Longitude Heading Altitude Ground
Speed
20-Jan-18 12:36 39.506580 -119.772813 351 4417ft 0kts
20-Jan-18 12:37 39.506580 -119.772813 351 4417ft 0kts
20-Jan-18 12:38 39.506580 -119.772813 351 4417ft 0kts
20-Jan-18 12:39 39.506580 -119.772813 351 4417ft 0kts
20-Jan-18 12:40 39.506580 -119.772813 351 4417ft 0kts
20-Jan-18 12:41 39.506580 -119.772813 351 4417ft 0kts
20-Jan-18 12:42 39.506580 -119.772813 351 4417ft 0kts
20-Jan-18 12:43 39.506580 -119.772813 351 4417ft 0kts
20-Jan-18 12:44 39.506411 -119.772781 351 4417ft 2kts
20-Jan-18 12:45 39.505932 -119.773019 79 4417ft 2kts
20-Jan-18 12:46 39.505928 -119.773139 93 4417ft 0kts
20-Jan-18 12:47 39.505928 -119.773139 93 4417ft 0kts
20-Jan-18 12:48 39.505928 -119.773139 93 4417ft 0kts
20-Jan-18 12:49 39.505928 -119.773139 93 4417ft 0kts
20-Jan-18 12:50 39.505928 -119.773139 93 4417ft 0kts
20-Jan-18 12:51 39.505914 -119.772859 93 4417ft 3kts
20-Jan-18 12:52 39.507592 -119.771489 0 4417ft 19kts
20-Jan-18 12:53 39.513357 -119.771468 7 4417ft 18kts
20-Jan-18 12:54 39.513737 -119.770669 86 4417ft 0kts
20-Jan-18 12:55 39.513737 -119.770669 86 4417ft 0kts
20-Jan-18 12:56 39.513737 -119.770669 86 4417ft 0kts
20-Jan-18 12:57 39.513737 -119.770669 86 4417ft 0kts
20-Jan-18 12:58 39.513739 -119.770583 88 4417ft 3kts
20-Jan-18 12:59 39.512374 -119.769229 180 4417ft 0kts
20-Jan-18 13:00 39.512276 -119.769231 180 4417ft 9kts
20-Jan-18 13:01 39.481343 -119.769128 178 5100ft 155kts
20-Jan-18 13:02 39.436602 -119.769057 182 6739ft 172kts
20-Jan-18 13:03 39.381011 -119.768591 182 8215ft 227kts
20-Jan-18 13:04 39.329961 -119.727460 89 10159ft 261kts
20-Jan-18 13:05 39.361497 -119.644200 52 12648ft 266kts
20-Jan-18 13:06 39.408215 -119.570765 45 15129ft 265kts
20-Jan-18 13:07 39.452660 -119.486007 60 15911ft 329kts
20-Jan-18 13:08 39.497383 -119.378421 54 17629ft 347kts
20-Jan-18 13:09 39.548275 -119.273239 55 19272ft 360kts
20-Jan-18 13:10 39.603692 -119.164611 48 20840ft 367kts
20-Jan-18 13:11 39.673703 -119.068071 42 22244ft 373kts
20-Jan-18 13:12 39.752128 -118.977944 33 23372ft 381kts
20-Jan-18 13:13 39.839179 -118.897992 32 24325ft 392kts
20-Jan-18 13:14 39.929406 -118.815264 37 25192ft 404kts
20-Jan-18 13:15 40.012039 -118.713924 43 26079ft 413kts
20-Jan-18 13:16 40.091628 -118.604848 43 26897ft 420kts
20-Jan-18 13:17 40.155160 -118.485300 78 27704ft 430kts
20-Jan-18 13:18 40.192806 -118.339440 65 28360ft 432kts
20-Jan-18 13:19 40.239517 -118.194489 65 28963ft 437kts
20-Jan-18 13:20 40.284093 -118.046477 73 29509ft 443kts
20-Jan-18 13:21 40.316748 -117.890086 73 30008ft 447kts
20-Jan-18 13:22 40.344237 -117.758787 73 30382ft 450kts
20-Jan-18 13:23 40.388868 -117.577038 67 30866ft 453kts
20-Jan-18 13:24 40.426930 -117.450014 64 31126ft 457kts
20-Jan-18 13:25 40.483330 -117.272274 69 31110ft 464kts
20-Jan-18 13:26 40.518623 -117.141118 69 31108ft 462kts
20-Jan-18 13:27 40.556059 -116.981369 74 31104ft 461kts
20-Jan-18 13:28 40.587917 -116.820522 76 31112ft 463kts
20-Jan-18 13:29 40.627974 -116.659877 59 31136ft 471kts
20-Jan-18 13:30 40.691119 -116.508460 66 31117ft 477kts
20-Jan-18 13:31 40.741912 -116.352916 68 31087ft 481kts
20-Jan-18 13:32 40.772837 -116.184105 72 31045ft 477kts
20-Jan-18 13:33 40.814236 -116.019213 70 31034ft 471kts
20-Jan-18 13:34 40.857046 -115.857314 70 31036ft 467kts
20-Jan-18 13:35 40.899691 -115.696048 70 31037ft 464kts
20-Jan-18 13:36 40.941708 -115.536071 70 31038ft 461kts
20-Jan-18 13:37 40.983383 -115.376297 70 31039ft 459kts
20-Jan-18 13:38 41.023175 -115.220215 70 31035ft 457kts
20-Jan-18 13:39 41.044064 -115.056674 89 31041ft 455kts
20-Jan-18 13:40 41.071731 -114.893144 73 31037ft 464kts
20-Jan-18 13:41 41.114141 -114.736382 70 31014ft 469kts
20-Jan-18 13:42 41.160189 -114.575046 70 31010ft 471kts
20-Jan-18 13:43 41.206109 -114.411766 70 31011ft 473kts
20-Jan-18 13:44 41.248666 -114.264181 65 31008ft 475kts
20-Jan-18 13:45 41.297563 -114.102470 72 31007ft 475kts
20-Jan-18 13:46 41.339585 -113.936510 73 31009ft 475kts
20-Jan-18 13:47 41.374615 -113.768002 83 31018ft 473kts
20-Jan-18 13:48 41.395921 -113.594830 82 31011ft 474kts
20-Jan-18 13:49 41.418162 -113.422106 82 31017ft 474kts
20-Jan-18 13:50 41.433557 -113.299435 82 29467ft 463kts
20-Jan-18 13:51 41.453853 -113.135576 80 27253ft 448kts
20-Jan-18 13:52 41.473878 -112.975809 79 24999ft 436kts
20-Jan-18 13:53 41.493379 -112.818469 76 22841ft 423kts
20-Jan-18 13:54 41.511852 -112.668672 75 21087ft 401kts
20-Jan-18 13:55 41.529038 -112.527013 75 19357ft 381kts
20-Jan-18 13:56 41.541940 -112.391440 94 17606ft 372kts
20-Jan-18 13:57 41.477548 -112.309741 168 17010ft 339kts
20-Jan-18 13:58 41.384662 -112.283674 175 17011ft 382kts
20-Jan-18 13:59 41.280176 -112.295511 173 16978ft 384kts
20-Jan-18 14:00 41.191186 -112.233032 146 16073ft 372kts
20-Jan-18 14:01 41.108093 -112.164801 146 14426ft 357kts
20-Jan-18 14:02 41.023401 -112.114174 170 12853ft 341kts
20-Jan-18 14:03 40.936362 -112.095917 171 11301ft 326kts
20-Jan-18 14:04 40.861436 -112.080009 171 9892ft 290kts
20-Jan-18 14:05 40.784450 -112.063532 171 8985ft 265kts
20-Jan-18 14:06 40.716949 -112.053992 180 9009ft 249kts
20-Jan-18 14:07 40.645452 -112.053329 180 8999ft 260kts
20-Jan-18 14:08 40.573662 -112.052626 180 9005ft 257kts
20-Jan-18 14:09 40.514985 -112.018620 102 8351ft 253kts
20-Jan-18 14:10 40.552164 -111.967002 343 7488ft 230kts
20-Jan-18 14:11 40.612859 -111.978392 357 6574ft 224kts
20-Jan-18 14:12 40.667232 -111.982055 352 6527ft 147kts
20-Jan-18 14:13 40.701606 -111.987011 354 5608ft 136kts
20-Jan-18 14:14 40.737041 -111.990947 353 5005ft 135kts
20-Jan-18 14:15 40.772710 -111.995210 352 4337ft 129kts
20-Jan-18 14:16 40.795146 -111.996253 57 4236ft 12kts
20-Jan-18 14:17 40.795174 -111.996196 57 4236ft 0kts
20-Jan-18 14:18 40.794931 -111.995630 168 4236ft 16kts
20-Jan-18 14:19 40.791086 -111.992491 85 4236ft 22kts
20-Jan-18 14:20 40.790316 -111.985909 131 4236ft 11kts
20-Jan-18 14:21 40.789182 -111.984581 236 4236ft 0kts
20-Jan-18 14:22 40.789182 -111.984581 236 4236ft 0kts
20-Jan-18 14:23 40.789182 -111.984581 236 4236ft 0kts
20-Jan-18 14:24 40.789182 -111.984581 236 4236ft 0kts
20-Jan-18 14:25 40.789182 -111.984581 236 4236ft 0kts
20-Jan-18 14:26 40.789182 -111.984581 236 4236ft 0kts
20-Jan-18 14:27 40.789182 -111.984581 236 4236ft 0kts
20-Jan-18 14:28 40.789182 -111.984581 236 4236ft 0kts
20-Jan-18 14:29 40.789182 -111.984581 236 4236ft 0kts

Navigation Log

Ident Type
Flight plan parsing failed, navigation log unavailable